AirNav   Air Wisconsin pilot careers
 
 1020 users online  

U86 Camas County Airport
Fairfield, Idaho, USA


FAA INFORMATION EFFECTIVE 04 JANUARY 2018

Location

FAA Identifier: U86
Lat/Long: 43-20-30.7000N / 114-47-53.8000W
43-20.511667N / 114-47.896667W
43.3418611 / -114.7982778
(estimated)
Elevation: 5058 ft. / 1541.7 m (surveyed)
Variation: 17E (1985)
Time zone: UTC -7 (UTC -6 during Daylight Saving Time)
Zip code: 83327

Airport Operations

Airport use: Open to the public
Activation date: 08/1946
Control tower: no
ARTCC: SALT LAKE CITY CENTER
FSS: BOISE FLIGHT SERVICE STATION
NOTAMs facility: BOI (NOTAM-D service available)
Attendance: UNATNDD
Wind indicator: yes
Segmented circle: yes

Airport Communications

CTAF: 122.9

Nearby radio navigation aids

NDB name  Hdg/Dist  Freq  Var  ID
HAILEY259/24.222013EHLE .... .-.. .
STEELHEAD332/26.121116EHDG .... -.. --.

Airport Services

Parking: tiedowns
Airframe service: NONE
Powerplant service: NONE
Bottled oxygen: NONE
Bulk oxygen: NONE

Runway Information

Runway 8/26

Dimensions: 2950 x 40 ft. / 899 x 12 m
Surface: dirt, in good condition
RUNWAY 8  RUNWAY 26
Latitude: 43-20.511000N43-20.512500N
Longitude: 114-48.229833W114-47.564333W
Traffic pattern: rightleft
Obstructions: 19 ft. road, 100 ft. left of centerline40 ft. pole, 222 ft. from runway, 85 ft. right of centerline, 5:1 slope to clear
NUMEROUS OBSTNS WI 300' OF EOR.

Airport Ownership and Management from official FAA records

Ownership: Publicly-owned
Owner: CAMAS COUNTY
PO BOX 430
FAIRFIELD, ID 83327
Phone 208-764-2242
Manager: WINSTON ELLIS
PO BOX 246
FAIRFIELD, ID 83327
Phone (208) 720-9020

Airport Operational Statistics

Aircraft based on the field: 5
Single engine airplanes: 4
Ultralights: 1
    
Aircraft operations: avg 43/week *
66% transient general aviation
33% local general aviation
<1% military
* for 12-month period ending 06 March 2015

Additional Remarks

IRREGULAR WINTER MAINTENANCE AND SNOW REMOVAL. OWNER ADVISES TO CHECK RWY CONDITIONS BEFORE USING.

Instrument Procedures

There are no published instrument procedures at U86.

Some nearby airports with instrument procedures:

KSUN - Friedman Memorial Airport (24 nm NE)
KGNG - Gooding Municipal Airport (26 nm S)
KJER - Jerome County Airport (40 nm S)
U76 - Mountain Home Municipal Airport (43 nm W)
KMUO - Mountain Home Air Force Base (50 nm W)
 
Loc | Ops | Rwys | IFR | FBO | Links
Com | Nav | Svcs | Stats | Notes


 
Area around U86 (Camas County Airport)
 
Road maps at: MapQuest Bing Google
 
Aerial photo
WARNING: Photo may not be current or correct
Aerial photo of U86 (Camas County Airport)
Photo by Winston Ellis
Photo taken 28-Jul-2009

Do you have a better or more recent aerial photo of Camas County Airport that you would like to share? If so, please send us your photo.

 
Sectional chart

 
Airport distance calculator
Flying to Camas County Airport? Find the distance to fly.

From to U86

Sunrise and sunset
Times for 20-Jan-2018
 Local
(UTC-7)
 Zulu
(UTC)
Morning civil twilight07:3614:36
Sunrise08:0715:07
Sunset17:3400:34
Evening civil twilight18:0501:05

Current date and time
Zulu (UTC)  20-Jan-2018 17:28:52
Local (UTC-7)  20-Jan-2018 10:28:52
 
METAR
KSUN 
24nm NE 
201653Z 30009KT 10SM SKC M06/M12 A2997
KJER 
41nm S 
201653Z AUTO 24009KT 10SM CLR M02/M05 A2999 RMK AO2 SLP182 T10221050
U76 
43nm W 
SuperAWOS
201655Z AUTO 30009KT 10SM 01/M04 A2999
TAF
KSUN 
24nm NE 
201122Z 2012/2118 32008KT P6SM SCT120 FM202000 23008KT P6SM SCT120 FM210300 31008KT P6SM SKC AMD LTD TO CLD VIS AND WIND TIL 201400
NOTAMs
Click for the latest NOTAMs
NOTAMs are issued by the DoD/FAA and will open in a separate window not controlled by AirNav.

 

 
 

Would you like to see your business listed on this page?

 If your business provides an interesting product or service to pilots, flight crews, aircraft, or users of the Camas County Airport, you should consider listing it here.  To start the listing process, click on the button below
 
Add a business
 

Other Pages about Camas County Airport

Update a link
 
Copyright © AirNav, LLC. All rights reserved. Privacy Policy  Contact